sensor_id;sensor_type;location;lat;lon;timestamp;pressure;altitude;pressure_sealevel;temperature;humidity
48015;BME280;33780;51.034;7.120;2023-05-25T00:01:01;101618.81;;;11.60;62.84
48015;BME280;33780;51.034;7.120;2023-05-25T00:03:28;101620.75;;;11.58;62.39
48015;BME280;33780;51.034;7.120;2023-05-25T00:05:53;101628.06;;;11.56;62.99
48015;BME280;33780;51.034;7.120;2023-05-25T00:08:18;101616.72;;;11.53;62.95
48015;BME280;33780;51.034;7.120;2023-05-25T00:10:44;101615.00;;;11.52;62.77
48015;BME280;33780;51.034;7.120;2023-05-25T00:13:09;101616.94;;;11.49;62.43
48015;BME280;33780;51.034;7.120;2023-05-25T00:15:34;101625.00;;;11.49;62.58
48015;BME280;33780;51.034;7.120;2023-05-25T00:18:00;101624.22;;;11.47;62.58
48015;BME280;33780;51.034;7.120;2023-05-25T00:20:25;101633.25;;;11.46;62.55
48015;BME280;33780;51.034;7.120;2023-05-25T00:22:51;101624.47;;;11.44;62.41
48015;BME280;33780;51.034;7.120;2023-05-25T00:25:16;101630.78;;;11.43;62.51
48015;BME280;33780;51.034;7.120;2023-05-25T00:27:41;101629.19;;;11.41;62.23
48015;BME280;33780;51.034;7.120;2023-05-25T00:30:07;101628.69;;;11.36;62.61
48015;BME280;33780;51.034;7.120;2023-05-25T00:32:32;101626.25;;;11.33;63.07
48015;BME280;33780;51.034;7.120;2023-05-25T00:34:58;101622.91;;;11.29;62.43
48015;BME280;33780;51.034;7.120;2023-05-25T00:37:23;101618.66;;;11.27;62.62
48015;BME280;33780;51.034;7.120;2023-05-25T00:39:48;101621.56;;;11.24;62.80
48015;BME280;33780;51.034;7.120;2023-05-25T00:42:14;101612.16;;;11.18;62.81
48015;BME280;33780;51.034;7.120;2023-05-25T00:44:41;101617.75;;;11.15;62.68
48015;BME280;33780;51.034;7.120;2023-05-25T00:47:06;101613.38;;;11.14;62.56
48015;BME280;33780;51.034;7.120;2023-05-25T00:49:34;101619.78;;;11.11;62.50
48015;BME280;33780;51.034;7.120;2023-05-25T00:52:00;101615.41;;;11.10;62.54
48015;BME280;33780;51.034;7.120;2023-05-25T00:54:25;101622.81;;;11.07;63.03
48015;BME280;33780;51.034;7.120;2023-05-25T00:56:55;101613.28;;;11.03;63.09
48015;BME280;33780;51.034;7.120;2023-05-25T00:59:30;101621.34;;;11.03;63.27
48015;BME280;33780;51.034;7.120;2023-05-25T01:02:02;101620.59;;;11.01;62.72
48015;BME280;33780;51.034;7.120;2023-05-25T01:04:36;101624.25;;;11.00;62.87
48015;BME280;33780;51.034;7.120;2023-05-25T01:07:07;101626.19;;;10.98;63.16
48015;BME280;33780;51.034;7.120;2023-05-25T01:09:33;101623.81;;;10.93;63.27
48015;BME280;33780;51.034;7.120;2023-05-25T01:12:01;101622.34;;;10.89;63.05
48015;BME280;33780;51.034;7.120;2023-05-25T01:14:27;101624.16;;;10.88;62.89
48015;BME280;33780;51.034;7.120;2023-05-25T01:16:53;101628.88;;;10.85;63.08
48015;BME280;33780;51.034;7.120;2023-05-25T01:19:20;101631.78;;;10.82;63.32
48015;BME280;33780;51.034;7.120;2023-05-25T01:21:53;101629.44;;;10.77;63.58
48015;BME280;33780;51.034;7.120;2023-05-25T01:24:46;101637.56;;;10.76;62.73
48015;BME280;33780;51.034;7.120;2023-05-25T01:29:44;101624.41;;;10.73;62.83
48015;BME280;33780;51.034;7.120;2023-05-25T01:32:12;101634.47;;;10.69;63.21
48015;BME280;33780;51.034;7.120;2023-05-25T01:34:39;101628.38;;;10.67;63.04
48015;BME280;33780;51.034;7.120;2023-05-25T01:37:05;101631.06;;;10.67;63.06
48015;BME280;33780;51.034;7.120;2023-05-25T01:39:30;101624.97;;;10.65;63.22
48015;BME280;33780;51.034;7.120;2023-05-25T01:41:56;101627.13;;;10.60;63.09
48015;BME280;33780;51.034;7.120;2023-05-25T01:44:22;101629.88;;;10.58;63.20
48015;BME280;33780;51.034;7.120;2023-05-25T01:46:52;101625.72;;;10.54;63.17
48015;BME280;33780;51.034;7.120;2023-05-25T01:49:27;101623.16;;;10.53;63.24
48015;BME280;33780;51.034;7.120;2023-05-25T01:52:06;101620.69;;;10.50;63.34
48015;BME280;33780;51.034;7.120;2023-05-25T01:54:43;101624.56;;;10.46;63.55
48015;BME280;33780;51.034;7.120;2023-05-25T01:57:13;101626.50;;;10.44;63.12
48015;BME280;33780;51.034;7.120;2023-05-25T01:59:42;101626.69;;;10.41;63.22
48015;BME280;33780;51.034;7.120;2023-05-25T02:02:12;101620.59;;;10.39;63.32
48015;BME280;33780;51.034;7.120;2023-05-25T02:04:38;101630.44;;;10.38;63.17
48015;BME280;33780;51.034;7.120;2023-05-25T02:07:03;101627.88;;;10.37;63.13
48015;BME280;33780;51.034;7.120;2023-05-25T02:09:29;101622.53;;;10.37;63.07
48015;BME280;33780;51.034;7.120;2023-05-25T02:11:54;101630.56;;;10.37;63.09
48015;BME280;33780;51.034;7.120;2023-05-25T02:14:19;101634.31;;;10.34;63.02
48015;BME280;33780;51.034;7.120;2023-05-25T02:16:45;101637.94;;;10.33;63.38
48015;BME280;33780;51.034;7.120;2023-05-25T02:19:11;101627.34;;;10.32;63.56
48015;BME280;33780;51.034;7.120;2023-05-25T02:21:39;101631.22;;;10.27;63.53
48015;BME280;33780;51.034;7.120;2023-05-25T02:24:05;101627.97;;;10.22;63.98
48015;BME280;33780;51.034;7.120;2023-05-25T02:29:02;101632.66;;;10.19;63.74
48015;BME280;33780;51.034;7.120;2023-05-25T02:31:30;101633.63;;;10.18;63.85
48015;BME280;33780;51.034;7.120;2023-05-25T02:33:56;101634.59;;;10.17;63.70
48015;BME280;33780;51.034;7.120;2023-05-25T02:36:22;101630.22;;;10.16;63.68
48015;BME280;33780;51.034;7.120;2023-05-25T02:38:47;101629.34;;;10.15;63.33
48015;BME280;33780;51.034;7.120;2023-05-25T02:41:20;101633.00;;;10.14;63.33
48015;BME280;33780;51.034;7.120;2023-05-25T02:43:46;101634.91;;;10.12;63.27
48015;BME280;33780;51.034;7.120;2023-05-25T02:46:11;101634.19;;;10.10;63.69
48015;BME280;33780;51.034;7.120;2023-05-25T02:48:40;101632.56;;;10.08;63.37
48015;BME280;33780;51.034;7.120;2023-05-25T02:51:07;101631.72;;;10.07;63.26
48015;BME280;33780;51.034;7.120;2023-05-25T02:53:32;101630.09;;;10.05;63.49
48015;BME280;33780;51.034;7.120;2023-05-25T02:55:58;101641.84;;;10.02;63.49
48015;BME280;33780;51.034;7.120;2023-05-25T02:58:24;101635.88;;;9.98;63.42
48015;BME280;33780;51.034;7.120;2023-05-25T03:00:52;101635.97;;;9.97;63.51
48015;BME280;33780;51.034;7.120;2023-05-25T03:03:18;101635.22;;;9.95;63.43
48015;BME280;33780;51.034;7.120;2023-05-25T03:05:43;101637.03;;;9.94;63.78
48015;BME280;33780;51.034;7.120;2023-05-25T03:08:09;101637.25;;;9.91;63.28
48015;BME280;33780;51.034;7.120;2023-05-25T03:10:34;101629.34;;;9.90;63.81
48015;BME280;33780;51.034;7.120;2023-05-25T03:13:00;101641.19;;;9.86;63.93
48015;BME280;33780;51.034;7.120;2023-05-25T03:15:25;101645.25;;;9.79;64.08
48015;BME280;33780;51.034;7.120;2023-05-25T03:17:51;101641.06;;;9.75;63.98
48015;BME280;33780;51.034;7.120;2023-05-25T03:20:17;101640.31;;;9.73;64.66
48015;BME280;33780;51.034;7.120;2023-05-25T03:22:44;101635.09;;;9.71;64.50
48015;BME280;33780;51.034;7.120;2023-05-25T03:25:10;101645.78;;;9.71;64.24
48015;BME280;33780;51.034;7.120;2023-05-25T03:27:38;101638.72;;;9.70;64.71
48015;BME280;33780;51.034;7.120;2023-05-25T03:30:07;101644.13;;;9.68;64.40
48015;BME280;33780;51.034;7.120;2023-05-25T03:32:33;101640.63;;;9.68;64.68
48015;BME280;33780;51.034;7.120;2023-05-25T03:34:58;101639.75;;;9.67;64.57
48015;BME280;33780;51.034;7.120;2023-05-25T03:37:26;101642.53;;;9.66;64.53
48015;BME280;33780;51.034;7.120;2023-05-25T03:39:52;101644.47;;;9.64;64.82
48015;BME280;33780;51.034;7.120;2023-05-25T03:42:17;101654.28;;;9.63;64.58
48015;BME280;33780;51.034;7.120;2023-05-25T03:44:42;101647.13;;;9.64;64.48
48015;BME280;33780;51.034;7.120;2023-05-25T03:47:10;101654.94;;;9.67;64.06
48015;BME280;33780;51.034;7.120;2023-05-25T03:49:37;101659.31;;;9.68;64.48
48015;BME280;33780;51.034;7.120;2023-05-25T03:52:02;101666.69;;;9.64;64.12
48015;BME280;33780;51.034;7.120;2023-05-25T03:54:31;101658.03;;;9.61;64.57
48015;BME280;33780;51.034;7.120;2023-05-25T03:56:56;101652.78;;;9.59;64.45
48015;BME280;33780;51.034;7.120;2023-05-25T03:59:23;101661.78;;;9.58;64.64
48015;BME280;33780;51.034;7.120;2023-05-25T04:01:49;101667.13;;;9.58;64.84
48015;BME280;33780;51.034;7.120;2023-05-25T04:04:15;101662.72;;;9.57;64.79
48015;BME280;33780;51.034;7.120;2023-05-25T04:06:43;101667.31;;;9.55;65.06
48015;BME280;33780;51.034;7.120;2023-05-25T04:09:10;101670.97;;;9.54;65.22
48015;BME280;33780;51.034;7.120;2023-05-25T04:11:36;101679.84;;;9.55;65.22
48015;BME280;33780;51.034;7.120;2023-05-25T04:14:01;101691.47;;;9.54;65.25
48015;BME280;33780;51.034;7.120;2023-05-25T04:16:27;101692.44;;;9.53;65.33
48015;BME280;33780;51.034;7.120;2023-05-25T04:18:55;101701.31;;;9.53;65.34
48015;BME280;33780;51.034;7.120;2023-05-25T04:21:21;101702.28;;;9.52;65.47
48015;BME280;33780;51.034;7.120;2023-05-25T04:23:46;101706.66;;;9.53;65.40
48015;BME280;33780;51.034;7.120;2023-05-25T04:26:11;101711.91;;;9.55;65.49
48015;BME280;33780;51.034;7.120;2023-05-25T04:28:37;101715.22;;;9.58;65.48
48015;BME280;33780;51.034;7.120;2023-05-25T04:31:05;101716.94;;;9.59;65.34
48015;BME280;33780;51.034;7.120;2023-05-25T04:33:30;101715.97;;;9.60;65.50
48015;BME280;33780;51.034;7.120;2023-05-25T04:35:55;101719.41;;;9.62;65.13
48015;BME280;33780;51.034;7.120;2023-05-25T04:38:24;101728.06;;;9.66;65.28
48015;BME280;33780;51.034;7.120;2023-05-25T04:40:50;101716.50;;;9.65;65.24
48015;BME280;33780;51.034;7.120;2023-05-25T04:43:16;101724.44;;;9.67;65.10
48015;BME280;33780;51.034;7.120;2023-05-25T04:45:45;101715.44;;;9.68;65.19
48015;BME280;33780;51.034;7.120;2023-05-25T04:48:11;101721.59;;;9.70;65.67
48015;BME280;33780;51.034;7.120;2023-05-25T04:50:37;101723.41;;;9.69;65.51
48015;BME280;33780;51.034;7.120;2023-05-25T04:53:04;101719.66;;;9.72;65.92
48015;BME280;33780;51.034;7.120;2023-05-25T04:55:29;101715.16;;;9.73;65.94
48015;BME280;33780;51.034;7.120;2023-05-25T04:57:55;101720.50;;;9.73;65.59
48015;BME280;33780;51.034;7.120;2023-05-25T05:00:20;101711.44;;;9.75;65.91
48015;BME280;33780;51.034;7.120;2023-05-25T05:02:46;101717.53;;;9.77;65.93
48015;BME280;33780;51.034;7.120;2023-05-25T05:05:14;101715.59;;;9.79;65.93
48015;BME280;33780;51.034;7.120;2023-05-25T05:07:39;101717.22;;;9.82;66.17
48015;BME280;33780;51.034;7.120;2023-05-25T05:10:05;101714.44;;;9.83;66.02
48015;BME280;33780;51.034;7.120;2023-05-25T05:12:31;101721.38;;;9.86;66.26
48015;BME280;33780;51.034;7.120;2023-05-25T05:14:56;101715.88;;;9.89;66.47
48015;BME280;33780;51.034;7.120;2023-05-25T05:17:24;101719.28;;;9.91;66.69
48015;BME280;33780;51.034;7.120;2023-05-25T05:19:50;101713.84;;;9.92;66.58
48015;BME280;33780;51.034;7.120;2023-05-25T05:22:16;101721.75;;;9.94;66.90
48015;BME280;33780;51.034;7.120;2023-05-25T05:24:41;101729.56;;;9.97;67.05
48015;BME280;33780;51.034;7.120;2023-05-25T05:27:06;101729.47;;;9.98;67.57
48015;BME280;33780;51.034;7.120;2023-05-25T05:29:32;101735.56;;;10.00;67.21
48015;BME280;33780;51.034;7.120;2023-05-25T05:31:59;101742.41;;;10.05;67.11
48015;BME280;33780;51.034;7.120;2023-05-25T05:34:24;101739.56;;;10.08;67.28
48015;BME280;33780;51.034;7.120;2023-05-25T05:36:50;101743.63;;;10.13;67.59
48015;BME280;33780;51.034;7.120;2023-05-25T05:39:15;101741.59;;;10.17;67.30
48015;BME280;33780;51.034;7.120;2023-05-25T05:41:40;101744.06;;;10.20;67.68
48015;BME280;33780;51.034;7.120;2023-05-25T05:44:09;101745.63;;;10.24;67.66
48015;BME280;33780;51.034;7.120;2023-05-25T05:46:34;101752.34;;;10.29;67.84
48015;BME280;33780;51.034;7.120;2023-05-25T05:49:01;101752.03;;;10.34;68.06
48015;BME280;33780;51.034;7.120;2023-05-25T05:51:26;101757.91;;;10.39;68.00
48015;BME280;33780;51.034;7.120;2023-05-25T05:53:51;101765.53;;;10.45;67.86
48015;BME280;33780;51.034;7.120;2023-05-25T05:56:18;101764.38;;;10.49;67.95
48015;BME280;33780;51.034;7.120;2023-05-25T05:58:43;101763.06;;;10.55;67.95
48015;BME280;33780;51.034;7.120;2023-05-25T06:01:09;101757.44;;;10.59;67.94
48015;BME280;33780;51.034;7.120;2023-05-25T06:03:34;101753.47;;;10.65;68.47
48015;BME280;33780;51.034;7.120;2023-05-25T06:05:59;101761.16;;;10.70;68.56
48015;BME280;33780;51.034;7.120;2023-05-25T06:08:25;101761.78;;;10.73;69.00
48015;BME280;33780;51.034;7.120;2023-05-25T06:10:51;101763.22;;;10.79;68.79
48015;BME280;33780;51.034;7.120;2023-05-25T06:13:16;101763.72;;;10.84;68.86
48015;BME280;33780;51.034;7.120;2023-05-25T06:15:42;101761.59;;;10.89;69.33
48015;BME280;33780;51.034;7.120;2023-05-25T06:18:07;101763.94;;;10.94;69.08
48015;BME280;33780;51.034;7.120;2023-05-25T06:20:33;101759.00;;;11.00;69.06
48015;BME280;33780;51.034;7.120;2023-05-25T06:22:59;101762.09;;;11.07;69.37
48015;BME280;33780;51.034;7.120;2023-05-25T06:25:24;101753.63;;;11.13;69.48
48015;BME280;33780;51.034;7.120;2023-05-25T06:27:50;101757.59;;;11.20;68.98
48015;BME280;33780;51.034;7.120;2023-05-25T06:30:15;101757.03;;;11.28;69.10
48015;BME280;33780;51.034;7.120;2023-05-25T06:32:41;101761.00;;;11.35;69.32
48015;BME280;33780;51.034;7.120;2023-05-25T06:35:07;101766.75;;;11.41;68.88
48015;BME280;33780;51.034;7.120;2023-05-25T06:37:33;101766.28;;;11.47;69.52
48015;BME280;33780;51.034;7.120;2023-05-25T06:40:03;101769.28;;;11.56;69.65
48015;BME280;33780;51.034;7.120;2023-05-25T06:42:35;101767.84;;;11.63;68.90
48015;BME280;33780;51.034;7.120;2023-05-25T06:45:02;101769.13;;;11.70;69.61
48015;BME280;33780;51.034;7.120;2023-05-25T06:47:27;101764.94;;;11.78;69.33
48015;BME280;33780;51.034;7.120;2023-05-25T06:49:53;101768.03;;;11.85;69.93
48015;BME280;33780;51.034;7.120;2023-05-25T06:52:18;101776.47;;;11.92;69.29
48015;BME280;33780;51.034;7.120;2023-05-25T06:54:43;101774.06;;;12.00;69.69
48015;BME280;33780;51.034;7.120;2023-05-25T06:57:08;101779.84;;;12.06;69.50
48015;BME280;33780;51.034;7.120;2023-05-25T06:59:34;101785.59;;;12.13;69.44
48015;BME280;33780;51.034;7.120;2023-05-25T07:01:59;101782.44;;;12.19;69.93
48015;BME280;33780;51.034;7.120;2023-05-25T07:04:25;101776.50;;;12.27;69.40
48015;BME280;33780;51.034;7.120;2023-05-25T07:06:51;101781.38;;;12.33;69.63
48015;BME280;33780;51.034;7.120;2023-05-25T07:09:16;101783.50;;;12.40;69.36
48015;BME280;33780;51.034;7.120;2023-05-25T07:11:44;101780.34;;;12.47;69.03
48015;BME280;33780;51.034;7.120;2023-05-25T07:14:10;101794.03;;;12.55;69.52
48015;BME280;33780;51.034;7.120;2023-05-25T07:16:35;101781.25;;;12.58;68.90
48015;BME280;33780;51.034;7.120;2023-05-25T07:19:01;101791.50;;;12.64;68.59
48015;BME280;33780;51.034;7.120;2023-05-25T07:21:26;101793.69;;;12.70;68.67
48015;BME280;33780;51.034;7.120;2023-05-25T07:23:52;101793.25;;;12.77;68.90
48015;BME280;33780;51.034;7.120;2023-05-25T07:26:17;101786.75;;;12.79;68.34
48015;BME280;33780;51.034;7.120;2023-05-25T07:28:45;101786.41;;;12.84;67.95
48015;BME280;33780;51.034;7.120;2023-05-25T07:31:10;101791.41;;;12.88;68.02
48015;BME280;33780;51.034;7.120;2023-05-25T07:33:35;101790.09;;;12.94;67.51
48015;BME280;33780;51.034;7.120;2023-05-25T07:36:01;101790.56;;;12.99;67.76
48015;BME280;33780;51.034;7.120;2023-05-25T07:38:26;101789.09;;;13.06;67.48
48015;BME280;33780;51.034;7.120;2023-05-25T07:40:51;101789.47;;;13.13;67.45
48015;BME280;33780;51.034;7.120;2023-05-25T07:43:17;101778.16;;;13.20;67.11
48015;BME280;33780;51.034;7.120;2023-05-25T07:45:42;101774.22;;;13.24;66.86
48015;BME280;33780;51.034;7.120;2023-05-25T07:48:07;101775.06;;;13.25;66.57
48015;BME280;33780;51.034;7.120;2023-05-25T07:50:33;101788.91;;;13.32;66.50
48015;BME280;33780;51.034;7.120;2023-05-25T07:52:58;101776.53;;;13.40;66.63
48015;BME280;33780;51.034;7.120;2023-05-25T07:55:25;101778.00;;;13.44;66.63
48015;BME280;33780;51.034;7.120;2023-05-25T07:57:50;101790.97;;;13.50;66.05
48015;BME280;33780;51.034;7.120;2023-05-25T08:00:16;101779.81;;;13.55;65.91
48015;BME280;33780;51.034;7.120;2023-05-25T08:02:42;101786.78;;;13.57;66.10
48015;BME280;33780;51.034;7.120;2023-05-25T08:05:08;101793.47;;;13.63;65.72
48015;BME280;33780;51.034;7.120;2023-05-25T08:07:34;101789.34;;;13.70;65.64
48015;BME280;33780;51.034;7.120;2023-05-25T08:09:59;101788.09;;;13.74;65.83
48015;BME280;33780;51.034;7.120;2023-05-25T08:12:25;101788.56;;;13.79;65.42
48015;BME280;33780;51.034;7.120;2023-05-25T08:14:50;101791.75;;;13.84;65.36
48015;BME280;33780;51.034;7.120;2023-05-25T08:17:16;101787.81;;;13.88;65.18
48015;BME280;33780;51.034;7.120;2023-05-25T08:19:41;101790.00;;;13.95;65.22
48015;BME280;33780;51.034;7.120;2023-05-25T08:22:06;101796.69;;;14.00;64.68
48015;BME280;33780;51.034;7.120;2023-05-25T08:24:31;101787.59;;;14.12;64.83
48015;BME280;33780;51.034;7.120;2023-05-25T08:27:08;101786.72;;;14.23;64.93
48015;BME280;33780;51.034;7.120;2023-05-25T08:29:33;101784.47;;;14.28;64.44
48015;BME280;33780;51.034;7.120;2023-05-25T08:31:58;101789.47;;;14.33;63.87
48015;BME280;33780;51.034;7.120;2023-05-25T08:34:23;101793.22;;;14.41;64.56
48015;BME280;33780;51.034;7.120;2023-05-25T08:36:49;101793.00;;;14.44;64.18
48015;BME280;33780;51.034;7.120;2023-05-25T08:39:14;101790.75;;;14.49;62.02
48015;BME280;33780;51.034;7.120;2023-05-25T08:41:42;101784.59;;;14.59;63.16
48015;BME280;33780;51.034;7.120;2023-05-25T08:44:09;101787.47;;;14.67;63.05
48015;BME280;33780;51.034;7.120;2023-05-25T08:46:34;101781.31;;;14.76;63.38
48015;BME280;33780;51.034;7.120;2023-05-25T08:49:07;101781.75;;;14.81;61.12
48015;BME280;33780;51.034;7.120;2023-05-25T08:51:35;101781.69;;;14.92;61.77
48015;BME280;33780;51.034;7.120;2023-05-25T08:54:06;101774.03;;;14.97;61.73
48015;BME280;33780;51.034;7.120;2023-05-25T08:59:19;101772.22;;;15.07;61.19
48015;BME280;33780;51.034;7.120;2023-05-25T09:01:52;101776.53;;;15.10;59.27
48015;BME280;33780;51.034;7.120;2023-05-25T09:04:21;101784.47;;;15.11;61.50
48015;BME280;33780;51.034;7.120;2023-05-25T09:06:47;101777.09;;;15.14;60.75
48015;BME280;33780;51.034;7.120;2023-05-25T09:09:12;101774.97;;;15.17;61.61
48015;BME280;33780;51.034;7.120;2023-05-25T09:11:42;101781.94;;;15.20;60.59
48015;BME280;33780;51.034;7.120;2023-05-25T09:14:07;101778.53;;;15.18;60.54
48015;BME280;33780;51.034;7.120;2023-05-25T09:16:33;101777.09;;;15.14;59.84
48015;BME280;33780;51.034;7.120;2023-05-25T09:19:01;101782.78;;;15.10;60.64
48015;BME280;33780;51.034;7.120;2023-05-25T09:21:26;101780.66;;;15.14;60.52
48015;BME280;33780;51.034;7.120;2023-05-25T09:23:51;101780.22;;;15.19;60.83
48015;BME280;33780;51.034;7.120;2023-05-25T09:26:17;101775.28;;;15.24;60.65
48015;BME280;33780;51.034;7.120;2023-05-25T09:28:46;101785.69;;;15.28;60.40
48015;BME280;33780;51.034;7.120;2023-05-25T09:31:13;101782.00;;;15.29;59.66
48015;BME280;33780;51.034;7.120;2023-05-25T09:33:39;101772.94;;;15.40;59.64
48015;BME280;33780;51.034;7.120;2023-05-25T09:36:05;101776.81;;;15.47;59.87
48015;BME280;33780;51.034;7.120;2023-05-25T09:38:31;101780.66;;;15.54;59.97
48015;BME280;33780;51.034;7.120;2023-05-25T09:40:57;101781.09;;;15.59;59.71
48015;BME280;33780;51.034;7.120;2023-05-25T09:43:22;101777.88;;;15.65;59.16
48015;BME280;33780;51.034;7.120;2023-05-25T09:45:47;101779.00;;;15.73;58.58
48015;BME280;33780;51.034;7.120;2023-05-25T09:48:13;101772.78;;;15.82;59.14
48015;BME280;33780;51.034;7.120;2023-05-25T09:50:38;101780.31;;;15.88;58.55
48015;BME280;33780;51.034;7.120;2023-05-25T09:53:06;101785.00;;;15.86;57.65
48015;BME280;33780;51.034;7.120;2023-05-25T09:55:31;101784.59;;;15.90;55.89
48015;BME280;33780;51.034;7.120;2023-05-25T09:57:56;101789.28;;;15.88;55.15
48015;BME280;33780;51.034;7.120;2023-05-25T10:00:23;101787.13;;;15.92;56.74
48015;BME280;33780;51.034;7.120;2023-05-25T10:02:49;101786.72;;;15.96;57.01
48015;BME280;33780;51.034;7.120;2023-05-25T10:05:15;101788.56;;;15.96;56.59
48015;BME280;33780;51.034;7.120;2023-05-25T10:07:43;101794.13;;;16.04;57.16
48015;BME280;33780;51.034;7.120;2023-05-25T10:10:09;101789.72;;;16.13;57.39
48015;BME280;33780;51.034;7.120;2023-05-25T10:12:36;101795.25;;;16.11;57.89
48015;BME280;33780;51.034;7.120;2023-05-25T10:15:05;101801.66;;;16.10;57.72
48015;BME280;33780;51.034;7.120;2023-05-25T10:17:34;101790.41;;;16.15;56.60
48015;BME280;33780;51.034;7.120;2023-05-25T10:20:02;101792.56;;;16.21;57.24
48015;BME280;33780;51.034;7.120;2023-05-25T10:22:35;101797.97;;;16.21;57.19
48015;BME280;33780;51.034;7.120;2023-05-25T10:25:07;101807.47;;;16.15;56.09
48015;BME280;33780;51.034;7.120;2023-05-25T10:28:06;101789.16;;;16.19;55.75
48015;BME280;33780;51.034;7.120;2023-05-25T10:30:29;101790.44;;;16.24;56.80
48015;BME280;33780;51.034;7.120;2023-05-25T10:32:55;101795.97;;;16.23;56.50
48015;BME280;33780;51.034;7.120;2023-05-25T10:35:21;101785.59;;;16.28;56.03
48015;BME280;33780;51.034;7.120;2023-05-25T10:37:50;101796.09;;;16.31;55.79
48015;BME280;33780;51.034;7.120;2023-05-25T10:40:15;101793.16;;;16.34;56.20
48015;BME280;33780;51.034;7.120;2023-05-25T10:42:41;101791.41;;;16.43;56.73
48015;BME280;33780;51.034;7.120;2023-05-25T10:45:07;101794.84;;;16.45;55.78
48015;BME280;33780;51.034;7.120;2023-05-25T10:47:36;101788.44;;;16.46;56.50
48015;BME280;33780;51.034;7.120;2023-05-25T10:50:02;101790.56;;;16.52;56.29
48015;BME280;33780;51.034;7.120;2023-05-25T10:52:29;101792.28;;;16.53;56.12
48015;BME280;33780;51.034;7.120;2023-05-25T10:54:58;101799.50;;;16.62;56.01
48015;BME280;33780;51.034;7.120;2023-05-25T10:57:29;101795.81;;;16.63;55.18
48015;BME280;33780;51.034;7.120;2023-05-25T11:00:00;101793.81;;;16.65;54.96
48015;BME280;33780;51.034;7.120;2023-05-25T11:02:29;101797.50;;;16.64;55.14
48015;BME280;33780;51.034;7.120;2023-05-25T11:07:57;101799.78;;;16.78;55.69
48015;BME280;33780;51.034;7.120;2023-05-25T11:10:41;101793.66;;;16.86;55.69
48015;BME280;33780;51.034;7.120;2023-05-25T11:23:58;101802.34;;;16.80;55.14
48015;BME280;33780;51.034;7.120;2023-05-25T11:26:26;101811.00;;;16.83;55.15
48015;BME280;33780;51.034;7.120;2023-05-25T11:28:53;101811.72;;;16.85;55.32
48015;BME280;33780;51.034;7.120;2023-05-25T11:31:21;101805.47;;;16.85;55.23
48015;BME280;33780;51.034;7.120;2023-05-25T11:33:54;101824.25;;;16.86;55.05
48015;BME280;33780;51.034;7.120;2023-05-25T11:36:23;101814.00;;;16.90;55.10
48015;BME280;33780;51.034;7.120;2023-05-25T11:38:49;101809.47;;;16.90;53.35
48015;BME280;33780;51.034;7.120;2023-05-25T11:41:25;101807.56;;;17.01;53.86
48015;BME280;33780;51.034;7.120;2023-05-25T11:43:52;101800.28;;;17.11;53.88
48015;BME280;33780;51.034;7.120;2023-05-25T11:46:18;101794.97;;;17.19;54.14
48015;BME280;33780;51.034;7.120;2023-05-25T11:48:51;101799.75;;;17.35;54.82
48015;BME280;33780;51.034;7.120;2023-05-25T11:51:18;101808.38;;;17.48;54.85
48015;BME280;33780;51.034;7.120;2023-05-25T11:53:44;101806.19;;;17.61;54.64
48015;BME280;33780;51.034;7.120;2023-05-25T11:56:11;101813.25;;;17.72;54.33
48015;BME280;33780;51.034;7.120;2023-05-25T11:58:37;101816.94;;;17.80;53.22
48015;BME280;33780;51.034;7.120;2023-05-25T12:01:13;101804.94;;;17.83;51.93
48015;BME280;33780;51.034;7.120;2023-05-25T12:03:51;101817.31;;;17.86;52.68
48015;BME280;33780;51.034;7.120;2023-05-25T12:06:27;101817.16;;;17.87;51.70
48015;BME280;33780;51.034;7.120;2023-05-25T12:08:54;101823.91;;;17.83;50.53
48015;BME280;33780;51.034;7.120;2023-05-25T12:11:31;101813.59;;;17.87;51.23
48015;BME280;33780;51.034;7.120;2023-05-25T12:13:57;101814.75;;;17.84;50.47
48015;BME280;33780;51.034;7.120;2023-05-25T12:16:23;101815.63;;;17.85;50.80
48015;BME280;33780;51.034;7.120;2023-05-25T12:18:49;101808.50;;;17.84;50.40
48015;BME280;33780;51.034;7.120;2023-05-25T12:21:15;101815.78;;;17.83;50.75
48015;BME280;33780;51.034;7.120;2023-05-25T12:23:41;101810.25;;;17.75;50.06
48015;BME280;33780;51.034;7.120;2023-05-25T12:26:11;101817.53;;;17.74;50.35
48015;BME280;33780;51.034;7.120;2023-05-25T12:28:38;101803.53;;;17.79;51.33
48015;BME280;33780;51.034;7.120;2023-05-25T12:31:19;101821.19;;;17.83;50.96
48015;BME280;33780;51.034;7.120;2023-05-25T12:33:45;101823.03;;;17.83;49.72
48015;BME280;33780;51.034;7.120;2023-05-25T12:36:10;101815.63;;;17.85;50.89
48015;BME280;33780;51.034;7.120;2023-05-25T12:38:37;101818.94;;;17.78;48.60
48015;BME280;33780;51.034;7.120;2023-05-25T12:41:06;101830.22;;;17.74;48.93
48015;BME280;33780;51.034;7.120;2023-05-25T12:43:40;101821.38;;;17.72;48.86
48015;BME280;33780;51.034;7.120;2023-05-25T12:46:07;101803.28;;;17.72;49.58
48015;BME280;33780;51.034;7.120;2023-05-25T12:48:33;101803.53;;;17.79;50.05
48015;BME280;33780;51.034;7.120;2023-05-25T12:50:58;101804.16;;;17.91;50.50
48015;BME280;33780;51.034;7.120;2023-05-25T12:53:23;101802.84;;;17.95;50.77
48015;BME280;33780;51.034;7.120;2023-05-25T12:55:59;101807.28;;;17.96;49.31
48015;BME280;33780;51.034;7.120;2023-05-25T12:58:26;101804.69;;;17.94;48.90
48015;BME280;33780;51.034;7.120;2023-05-25T13:00:55;101804.97;;;18.01;50.58
48015;BME280;33780;51.034;7.120;2023-05-25T13:03:29;101805.19;;;18.07;50.25
48015;BME280;33780;51.034;7.120;2023-05-25T13:05:59;101807.59;;;18.10;50.18
48015;BME280;33780;51.034;7.120;2023-05-25T13:08:45;101797.84;;;18.18;50.20
48015;BME280;33780;51.034;7.120;2023-05-25T13:11:11;101799.56;;;18.19;49.06
48015;BME280;33780;51.034;7.120;2023-05-25T13:13:36;101795.53;;;18.23;50.02